createdAt,value
2023-08-11T00:01:24.821Z,94863.66
2023-08-11T00:03:51.416Z,94862.47
2023-08-11T00:06:18.126Z,94862.88
2023-08-11T00:08:44.886Z,94870.41
2023-08-11T00:11:13.428Z,94871.19
2023-08-11T00:13:40.017Z,94869.66
2023-08-11T00:16:08.304Z,94874.81
2023-08-11T00:18:35.000Z,94875.66
2023-08-11T00:21:01.648Z,94875.25
2023-08-11T00:23:28.227Z,94874.06
2023-08-11T00:25:54.889Z,94873.25
2023-08-11T00:28:21.536Z,94881.13
2023-08-11T00:30:48.263Z,94874.81
2023-08-11T00:33:14.892Z,94874.09
2023-08-11T00:35:43.287Z,94876.88
2023-08-11T00:38:09.906Z,94880.09
2023-08-11T00:40:37.933Z,94884.38
2023-08-11T00:43:04.630Z,94887.59
2023-08-11T00:45:31.489Z,94881.31
2023-08-11T00:47:58.445Z,94888.03
2023-08-11T00:50:26.578Z,94889.63
2023-08-11T00:52:53.760Z,94889.97
2023-08-11T00:55:20.765Z,94884.91
2023-08-11T00:57:47.760Z,94886.88
2023-08-11T01:00:16.082Z,94885.31
2023-08-11T01:02:44.528Z,94876.28
2023-08-11T01:05:13.127Z,94875.91
2023-08-11T01:07:48.231Z,94878.66
2023-08-11T01:10:29.677Z,94873.97
2023-08-11T01:13:25.262Z,94864.13
2023-08-11T01:15:59.730Z,94865.34
2023-08-11T01:18:29.361Z,94867.69
2023-08-11T01:21:00.740Z,94866.88
2023-08-11T01:23:30.564Z,94868.91
2023-08-11T01:29:45.794Z,94868.13
2023-08-11T01:32:13.140Z,94874.81
2023-08-11T01:34:39.717Z,94870.16
2023-08-11T01:37:06.597Z,94865.03
2023-08-11T01:39:34.226Z,94860.72
2023-08-11T01:42:00.981Z,94865.78
2023-08-11T01:44:27.927Z,94868.97
2023-08-11T01:46:57.738Z,94873.31
2023-08-11T01:49:26.571Z,94865.09
2023-08-11T01:51:53.829Z,94874.56
2023-08-11T01:54:20.689Z,94869.88
2023-08-11T01:56:47.993Z,94869.47
2023-08-11T01:59:16.559Z,94871.84
2023-08-11T02:01:43.532Z,94864.81
2023-08-11T02:04:10.173Z,94871.09
2023-08-11T02:06:40.830Z,94869.13
2023-08-11T02:09:10.057Z,94871.50
2023-08-11T02:11:38.426Z,94868.72
2023-08-11T02:14:06.163Z,94863.56
2023-08-11T02:16:34.711Z,94865.59
2023-08-11T02:19:01.481Z,94859.34
2023-08-11T02:21:29.196Z,94856.22
2023-08-11T02:23:56.013Z,94858.56
2023-08-11T02:26:23.575Z,94861.72
2023-08-11T02:28:50.609Z,94858.56
2023-08-11T02:31:17.283Z,94857.81
2023-08-11T02:33:44.695Z,94857.44
2023-08-11T02:36:11.472Z,94859.03
2023-08-11T02:38:38.223Z,94857.03
2023-08-11T02:41:04.875Z,94847.56
2023-08-11T02:43:31.511Z,94852.75
2023-08-11T02:45:58.162Z,94855.91
2023-08-11T02:48:24.896Z,94847.63
2023-08-11T02:50:51.492Z,94850.38
2023-08-11T02:53:18.081Z,94839.75
2023-08-11T02:55:44.869Z,94843.31
2023-08-11T02:58:12.706Z,94838.66
2023-08-11T03:00:39.294Z,94836.25
2023-08-11T03:03:06.004Z,94838.66
2023-08-11T03:05:32.868Z,94841.78
2023-08-11T03:07:59.653Z,94838.66
2023-08-11T03:10:26.313Z,94841.78
2023-08-11T03:12:53.012Z,94850.81
2023-08-11T03:15:20.436Z,94850.03
2023-08-11T03:17:47.591Z,94846.94
2023-08-11T03:20:16.134Z,94833.19
2023-08-11T03:22:45.648Z,94837.09
2023-08-11T03:25:15.239Z,94836.72
2023-08-11T03:27:44.156Z,94846.53
2023-08-11T03:30:16.501Z,94845.72
2023-08-11T03:32:47.268Z,94846.19
2023-08-11T03:35:15.665Z,94847.78
2023-08-11T03:37:42.371Z,94842.31
2023-08-11T03:40:14.007Z,94839.53
2023-08-11T03:42:44.744Z,94846.59
2023-08-11T03:45:13.725Z,94846.19
2023-08-11T03:47:42.650Z,94841.09
2023-08-11T03:50:14.991Z,94846.59
2023-08-11T03:52:41.616Z,94843.88
2023-08-11T03:55:10.730Z,94848.97
2023-08-11T03:57:39.097Z,94854.47
2023-08-11T04:00:10.950Z,94854.47
2023-08-11T04:02:40.166Z,94857.59
2023-08-11T04:05:11.264Z,94856.81
2023-08-11T04:07:38.442Z,94858.38
2023-08-11T04:10:05.875Z,94852.88
2023-08-11T04:12:33.151Z,94859.97
2023-08-11T04:15:00.208Z,94861.91
2023-08-11T04:17:27.743Z,94860.38
2023-08-11T04:19:57.823Z,94860.72
2023-08-11T04:22:38.216Z,94859.94
2023-08-11T04:25:06.858Z,94865.03
2023-08-11T04:27:33.469Z,94865.03
2023-08-11T04:30:00.410Z,94865.84
2023-08-11T04:32:27.280Z,94868.59
2023-08-11T04:34:53.875Z,94861.50
2023-08-11T04:37:21.231Z,94871.31
2023-08-11T04:39:47.893Z,94870.91
2023-08-11T04:42:14.819Z,94870.50
2023-08-11T04:44:41.748Z,94877.56
2023-08-11T04:47:08.401Z,94868.16
2023-08-11T04:49:36.392Z,94872.47
2023-08-11T04:52:03.032Z,94870.09
2023-08-11T04:54:29.715Z,94868.13
2023-08-11T04:56:56.818Z,94874.41
2023-08-11T04:59:23.422Z,94877.16
2023-08-11T05:01:50.530Z,94872.44
2023-08-11T05:04:17.202Z,94883.41
2023-08-11T05:06:44.242Z,94871.66
2023-08-11T05:09:10.921Z,94882.25
2023-08-11T05:11:38.465Z,94883.41
2023-08-11T05:14:05.073Z,94880.25
2023-08-11T05:16:31.706Z,94884.53
2023-08-11T05:18:58.328Z,94883.34
2023-08-11T05:21:24.917Z,94884.91
2023-08-11T05:23:51.766Z,94886.88
2023-08-11T05:26:18.748Z,94881.34
2023-08-11T05:28:45.318Z,94885.25
2023-08-11T05:31:12.110Z,94884.84
2023-08-11T05:33:39.415Z,94887.13
2023-08-11T05:36:06.068Z,94891.06
2023-08-11T05:38:32.623Z,94877.69
2023-08-11T05:40:59.207Z,94885.56
2023-08-11T05:43:25.839Z,94885.09
2023-08-11T05:45:52.466Z,94887.03
2023-08-11T05:48:19.056Z,94895.59
2023-08-11T05:50:46.300Z,94888.13
2023-08-11T05:53:13.482Z,94889.66
2023-08-11T05:55:40.331Z,94885.75
2023-08-11T05:58:07.035Z,94889.72
2023-08-11T06:00:33.723Z,94891.59
2023-08-11T06:03:00.304Z,94886.78
2023-08-11T06:05:27.625Z,94892.22
2023-08-11T06:08:05.130Z,94891.28
2023-08-11T06:10:33.318Z,94884.06
2023-08-11T06:13:00.224Z,94884.78
2023-08-11T06:15:27.043Z,94890.19
2023-08-11T06:17:53.736Z,94885.69
2023-08-11T06:20:29.997Z,94874.16
2023-08-11T06:23:01.659Z,94884.19
2023-08-11T06:25:28.881Z,94886.44
2023-08-11T06:27:55.454Z,94892.59
2023-08-11T06:30:22.093Z,94888.88
2023-08-11T06:32:48.768Z,94891.50
2023-08-11T06:35:15.373Z,94886.19
2023-08-11T06:37:42.045Z,94884.91
2023-08-11T06:40:10.040Z,94880.00
2023-08-11T06:42:36.700Z,94883.00
2023-08-11T06:45:08.477Z,94880.25
2023-08-11T06:47:36.027Z,94879.94
2023-08-11T06:50:04.290Z,94887.56
2023-08-11T06:52:30.948Z,94881.00
2023-08-11T06:54:57.572Z,94877.53
2023-08-11T06:57:24.298Z,94891.44
2023-08-11T06:59:50.896Z,94877.38
2023-08-11T07:02:17.532Z,94877.56
2023-08-11T07:04:44.209Z,94878.06
2023-08-11T07:07:11.059Z,94882.16
2023-08-11T07:09:37.783Z,94885.03
2023-08-11T07:12:04.649Z,94880.81
2023-08-11T07:14:31.299Z,94876.06
2023-08-11T07:16:57.948Z,94873.69
2023-08-11T07:19:26.474Z,94876.00
2023-08-11T07:21:53.055Z,94879.31
2023-08-11T07:24:19.678Z,94871.94
2023-08-11T07:26:46.239Z,94866.69
2023-08-11T07:29:12.908Z,94869.84
2023-08-11T07:31:40.703Z,94875.78
2023-08-11T07:34:07.343Z,94874.66
2023-08-11T07:36:33.964Z,94871.81
2023-08-11T07:39:16.923Z,94875.72
2023-08-11T07:41:47.107Z,94869.28
2023-08-11T07:44:13.704Z,94873.66
2023-08-11T07:46:40.395Z,94871.00
2023-08-11T07:49:07.119Z,94877.69
2023-08-11T07:51:33.829Z,94876.88
2023-08-11T07:54:00.507Z,94878.09
2023-08-11T07:56:27.824Z,94872.53
2023-08-11T07:58:54.427Z,94880.06
2023-08-11T08:01:21.146Z,94882.00
2023-08-11T08:03:47.858Z,94878.09
2023-08-11T08:06:15.640Z,94878.41
2023-08-11T08:08:42.367Z,94884.72
2023-08-11T08:11:09.461Z,94886.97
2023-08-11T08:13:36.358Z,94883.22
2023-08-11T08:16:03.077Z,94882.69
2023-08-11T08:18:29.794Z,94881.72
2023-08-11T08:20:56.465Z,94888.00
2023-08-11T08:23:23.400Z,94885.13
2023-08-11T08:25:50.078Z,94884.66
2023-08-11T08:28:16.638Z,94886.53
2023-08-11T08:30:43.379Z,94888.47
2023-08-11T08:33:10.203Z,94891.03
2023-08-11T08:35:37.384Z,94884.41
2023-08-11T08:38:04.700Z,94874.66
2023-08-11T08:40:35.917Z,94877.16
2023-08-11T08:43:08.810Z,94881.03
2023-08-11T08:45:38.207Z,94881.22
2023-08-11T08:48:09.324Z,94876.72
2023-08-11T08:50:37.645Z,94874.69
2023-08-11T08:53:04.436Z,94867.81
2023-08-11T08:55:30.994Z,94869.50
2023-08-11T08:57:57.580Z,94864.19
2023-08-11T09:00:24.858Z,94873.94
2023-08-11T09:02:52.472Z,94868.19
2023-08-11T09:05:19.536Z,94865.97
2023-08-11T09:07:46.094Z,94864.50
2023-08-11T09:10:12.776Z,94861.94
2023-08-11T09:12:39.395Z,94865.53
2023-08-11T09:15:10.385Z,94863.31
2023-08-11T09:17:38.561Z,94861.41
2023-08-11T09:20:05.756Z,94858.69
2023-08-11T09:22:37.197Z,94860.50
2023-08-11T09:25:05.001Z,94861.31
2023-08-11T09:27:32.379Z,94851.31
2023-08-11T09:29:59.184Z,94852.00
2023-08-11T09:32:27.160Z,94854.53
2023-08-11T09:34:54.199Z,94857.47
2023-08-11T09:37:20.900Z,94857.75
2023-08-11T09:39:50.481Z,94859.53
2023-08-11T09:42:19.697Z,94861.88
2023-08-11T09:44:46.299Z,94853.63
2023-08-11T09:47:16.369Z,94863.19
2023-08-11T09:49:47.926Z,94865.41
2023-08-11T09:52:15.734Z,94864.06
2023-08-11T09:54:44.995Z,94859.84
2023-08-11T09:57:14.266Z,94862.31
2023-08-11T09:59:45.708Z,94866.66
2023-08-11T10:02:18.065Z,94862.44
2023-08-11T10:04:58.504Z,94869.41
2023-08-11T10:07:35.291Z,94864.44
2023-08-11T10:10:11.401Z,94860.63
2023-08-11T10:12:41.797Z,94868.97
2023-08-11T10:15:11.677Z,94875.44
2023-08-11T10:17:39.573Z,94875.38
2023-08-11T10:20:08.505Z,94875.22
2023-08-11T10:22:35.261Z,94873.53
2023-08-11T10:25:05.550Z,94871.69
2023-08-11T10:27:32.610Z,94876.03
2023-08-11T10:29:59.905Z,94870.84
2023-08-11T10:32:32.546Z,94870.13
2023-08-11T10:34:59.174Z,94871.88
2023-08-11T10:37:37.004Z,94878.31
2023-08-11T10:40:06.290Z,94874.03
2023-08-11T10:42:33.476Z,94868.59
2023-08-11T10:45:11.678Z,94876.59
2023-08-11T10:48:00.037Z,94862.31
2023-08-11T10:50:28.068Z,94857.44
2023-08-11T10:53:20.918Z,94867.81
2023-08-11T10:56:00.511Z,94861.09
2023-08-11T10:58:30.261Z,94860.28
2023-08-11T11:00:58.167Z,94862.06
2023-08-11T11:03:24.845Z,94858.34
2023-08-11T11:05:51.491Z,94852.31
2023-08-11T11:08:18.139Z,94849.38
2023-08-11T11:10:50.529Z,94847.22
2023-08-11T11:13:18.213Z,94847.41
2023-08-11T11:15:44.942Z,94851.91
2023-08-11T11:18:11.670Z,94851.81
2023-08-11T11:20:38.962Z,94849.56
2023-08-11T11:23:06.475Z,94846.81
2023-08-11T11:25:33.124Z,94841.41
2023-08-11T11:27:59.985Z,94845.06
2023-08-11T11:30:26.694Z,94839.91
2023-08-11T11:32:53.596Z,94836.59
2023-08-11T11:35:20.330Z,94833.25
2023-08-11T11:37:47.441Z,94839.16
2023-08-11T11:40:14.928Z,94833.78
2023-08-11T11:42:42.523Z,94837.66
2023-08-11T11:45:10.878Z,94841.03
2023-08-11T11:47:38.085Z,94839.25
2023-08-11T11:50:08.846Z,94840.25
2023-08-11T11:52:37.746Z,94834.09
2023-08-11T11:55:07.279Z,94832.56
2023-08-11T11:57:34.841Z,94834.84
2023-08-11T12:00:04.159Z,94838.47
2023-08-11T12:02:40.264Z,94832.53
2023-08-11T12:05:09.216Z,94834.31
2023-08-11T12:07:37.544Z,94832.81
2023-08-11T12:10:07.798Z,94837.69
2023-08-11T12:12:34.557Z,94839.75
2023-08-11T12:15:03.332Z,94843.84
2023-08-11T12:17:37.267Z,94838.97
2023-08-11T12:20:07.760Z,94838.97
2023-08-11T12:22:34.757Z,94838.72
2023-08-11T12:25:01.313Z,94833.28
2023-08-11T12:27:29.438Z,94834.75
2023-08-11T12:29:56.107Z,94829.00
2023-08-11T12:32:22.741Z,94833.66
2023-08-11T12:34:49.309Z,94828.25
2023-08-11T12:37:16.051Z,94827.72
2023-08-11T12:39:42.634Z,94829.97
2023-08-11T12:42:11.154Z,94838.06
2023-08-11T12:44:39.983Z,94835.38
2023-08-11T12:47:06.842Z,94826.22
2023-08-11T12:49:33.436Z,94826.97
2023-08-11T12:52:00.053Z,94819.75
2023-08-11T12:54:26.603Z,94826.44
2023-08-11T12:56:53.149Z,94838.28
2023-08-11T12:59:19.715Z,94828.97
2023-08-11T13:01:46.293Z,94825.94
2023-08-11T13:04:12.902Z,94833.09
2023-08-11T13:06:40.742Z,94823.97
2023-08-11T13:09:08.611Z,94823.06
2023-08-11T13:11:35.257Z,94819.09
2023-08-11T13:14:02.693Z,94815.47
2023-08-11T13:16:29.829Z,94819.47
2023-08-11T13:18:56.459Z,94820.38
2023-08-11T13:21:23.572Z,94825.31
2023-08-11T13:23:50.371Z,94818.81
2023-08-11T13:26:17.327Z,94816.97
2023-08-11T13:28:43.960Z,94823.44
2023-08-11T13:31:10.658Z,94819.13
2023-08-11T13:33:37.297Z,94819.00
2023-08-11T13:36:05.753Z,94821.72
2023-08-11T13:38:32.712Z,94819.25
2023-08-11T13:40:59.351Z,94820.25
2023-08-11T13:43:25.916Z,94816.00
2023-08-11T13:45:54.268Z,94816.78
2023-08-11T13:48:24.503Z,94819.72
2023-08-11T13:50:51.694Z,94815.41
2023-08-11T13:53:18.362Z,94818.13
2023-08-11T13:55:44.982Z,94807.09
2023-08-11T13:58:11.537Z,94801.53
2023-08-11T14:00:38.135Z,94813.72
2023-08-11T14:03:05.081Z,94811.22
2023-08-11T14:05:31.661Z,94806.06
2023-08-11T14:07:58.262Z,94797.81
2023-08-11T14:10:25.262Z,94802.31
2023-08-11T14:12:51.842Z,94801.38
2023-08-11T14:15:18.406Z,94798.28
2023-08-11T14:17:45.035Z,94801.31
2023-08-11T14:20:12.168Z,94797.28
2023-08-11T14:22:38.808Z,94796.06
2023-08-11T14:25:05.876Z,94789.78
2023-08-11T14:27:32.479Z,94786.03
2023-08-11T14:29:59.065Z,94781.22
2023-08-11T14:32:26.751Z,94774.19
2023-08-11T14:34:53.808Z,94780.47
2023-08-11T14:37:21.864Z,94775.47
2023-08-11T14:39:48.702Z,94777.41
2023-08-11T14:42:15.534Z,94778.97
2023-08-11T14:44:42.561Z,94766.13
2023-08-11T14:47:14.150Z,94777.66
2023-08-11T14:49:41.600Z,94776.72
2023-08-11T14:52:08.479Z,94767.34
2023-08-11T14:54:35.387Z,94771.25
2023-08-11T14:57:01.965Z,94767.59
2023-08-11T14:59:28.599Z,94765.06
2023-08-11T15:01:55.159Z,94767.72
2023-08-11T15:04:21.961Z,94762.63
2023-08-11T15:06:48.494Z,94768.56
2023-08-11T15:09:15.046Z,94755.69
2023-08-11T15:11:41.693Z,94757.97
2023-08-11T15:14:11.508Z,94759.69
2023-08-11T15:16:38.326Z,94754.19
2023-08-11T15:19:04.969Z,94756.31
2023-08-11T15:21:31.591Z,94756.63
2023-08-11T15:23:58.362Z,94756.44
2023-08-11T15:26:26.263Z,94760.22
2023-08-11T15:28:53.442Z,94760.88
2023-08-11T15:31:20.373Z,94762.41
2023-08-11T15:33:50.406Z,94761.94
2023-08-11T15:36:17.045Z,94758.41
2023-08-11T15:38:43.735Z,94757.91
2023-08-11T15:41:10.793Z,94756.59
2023-08-11T15:43:37.453Z,94765.38
2023-08-11T15:46:04.626Z,94765.19
2023-08-11T15:48:31.357Z,94759.69
2023-08-11T15:50:57.924Z,94760.81
2023-08-11T15:53:24.531Z,94759.41
2023-08-11T15:55:52.017Z,94752.56
2023-08-11T15:58:21.900Z,94755.13
2023-08-11T16:00:49.257Z,94752.00
2023-08-11T16:03:16.273Z,94750.63
2023-08-11T16:05:43.977Z,94752.59
2023-08-11T16:08:10.546Z,94756.22
2023-08-11T16:10:40.898Z,94759.50
2023-08-11T16:13:10.370Z,94751.72
2023-08-11T16:15:37.621Z,94759.41
2023-08-11T16:18:10.583Z,94750.53
2023-08-11T16:20:37.595Z,94749.91
2023-08-11T16:23:05.372Z,94755.06
2023-08-11T16:25:32.483Z,94754.47
2023-08-11T16:27:59.117Z,94756.06
2023-08-11T16:30:26.220Z,94755.63
2023-08-11T16:32:55.007Z,94756.16
2023-08-11T16:35:22.436Z,94752.06
2023-08-11T16:37:49.053Z,94751.69
2023-08-11T16:40:15.664Z,94742.78
2023-08-11T16:42:42.346Z,94752.34
2023-08-11T16:45:09.490Z,94748.09
2023-08-11T16:47:36.285Z,94752.03
2023-08-11T16:50:02.929Z,94747.22
2023-08-11T16:52:29.544Z,94752.16
2023-08-11T16:54:56.632Z,94754.72
2023-08-11T16:57:23.397Z,94754.81
2023-08-11T16:59:50.095Z,94759.34
2023-08-11T17:02:16.774Z,94753.47
2023-08-11T17:04:43.389Z,94745.16
2023-08-11T17:07:10.702Z,94753.72
2023-08-11T17:09:37.923Z,94757.16
2023-08-11T17:12:04.699Z,94754.44
2023-08-11T17:14:31.268Z,94750.91
2023-08-11T17:16:57.919Z,94754.69
2023-08-11T17:19:24.698Z,94754.09
2023-08-11T17:21:51.456Z,94751.19
2023-08-11T17:24:18.060Z,94751.56
2023-08-11T17:26:44.812Z,94762.00
2023-08-11T17:29:11.401Z,94754.13
2023-08-11T17:31:40.379Z,94749.78
2023-08-11T17:34:07.421Z,94751.69
2023-08-11T17:36:34.985Z,94752.63
2023-08-11T17:39:01.548Z,94755.28
2023-08-11T17:41:28.237Z,94754.84
2023-08-11T17:43:56.306Z,94749.31
2023-08-11T17:46:23.429Z,94764.56
2023-08-11T17:48:53.387Z,94753.25
2023-08-11T17:51:21.679Z,94756.69
2023-08-11T17:53:59.716Z,94750.22
2023-08-11T17:56:37.845Z,94750.06
2023-08-11T17:59:05.223Z,94754.75
2023-08-11T18:01:32.433Z,94751.03
2023-08-11T18:04:05.298Z,94754.13
2023-08-11T18:06:35.019Z,94760.81
2023-08-11T18:09:02.164Z,94769.03
2023-08-11T18:11:29.426Z,94762.53
2023-08-11T18:13:56.729Z,94761.31
2023-08-11T18:16:24.110Z,94759.91
2023-08-11T18:18:52.052Z,94762.09
2023-08-11T18:21:21.015Z,94766.28
2023-08-11T18:23:48.520Z,94770.16
2023-08-11T18:26:16.497Z,94771.25
2023-08-11T18:28:43.451Z,94768.31
2023-08-11T18:31:10.190Z,94760.56
2023-08-11T18:33:36.831Z,94761.47
2023-08-11T18:36:03.506Z,94762.84
2023-08-11T18:38:32.299Z,94760.34
2023-08-11T18:41:00.365Z,94768.84
2023-08-11T18:43:26.988Z,94769.44
2023-08-11T18:45:53.586Z,94776.56
2023-08-11T18:48:20.143Z,94781.88
2023-08-11T18:50:46.958Z,94787.34
2023-08-11T18:53:14.024Z,94778.19
2023-08-11T18:55:40.571Z,94789.34
2023-08-11T18:58:07.827Z,94775.19
2023-08-11T19:00:34.454Z,94788.16
2023-08-11T19:03:01.127Z,94786.09
2023-08-11T19:05:28.527Z,94791.91
2023-08-11T19:07:55.920Z,94784.22
2023-08-11T19:10:28.756Z,94787.84
2023-08-11T19:12:55.367Z,94782.84
2023-08-11T19:15:22.008Z,94789.56
2023-08-11T19:17:48.632Z,94790.06
2023-08-11T19:20:15.266Z,94794.72
2023-08-11T19:22:41.958Z,94792.72
2023-08-11T19:25:08.875Z,94795.13
2023-08-11T19:27:35.624Z,94783.53
2023-08-11T19:30:02.251Z,94790.16
2023-08-11T19:32:28.970Z,94794.06
2023-08-11T19:34:56.939Z,94793.09
2023-08-11T19:37:23.666Z,94794.69
2023-08-11T19:39:50.326Z,94796.16
2023-08-11T19:42:16.916Z,94794.06
2023-08-11T19:44:44.468Z,94796.06
2023-08-11T19:47:11.032Z,94790.97
2023-08-11T19:49:37.793Z,94795.41
2023-08-11T19:52:04.566Z,94795.06
2023-08-11T19:54:31.234Z,94793.31
2023-08-11T19:56:57.840Z,94788.41
2023-08-11T19:59:24.493Z,94797.19
2023-08-11T20:01:51.235Z,94795.84
2023-08-11T20:04:20.026Z,94790.41
2023-08-11T20:06:46.733Z,94800.84
2023-08-11T20:09:13.852Z,94795.09
2023-08-11T20:11:40.422Z,94797.97
2023-08-11T20:14:07.000Z,94793.53
2023-08-11T20:16:33.692Z,94794.28
2023-08-11T20:19:00.341Z,94797.97
2023-08-11T20:21:27.013Z,94790.75
2023-08-11T20:23:53.553Z,94802.19
2023-08-11T20:26:20.152Z,94800.50
2023-08-11T20:28:47.849Z,94797.06
2023-08-11T20:31:15.196Z,94797.31
2023-08-11T20:33:41.863Z,94793.84
2023-08-11T20:36:08.494Z,94795.97
2023-08-11T20:38:37.261Z,94792.94
2023-08-11T20:41:05.751Z,94774.94
2023-08-11T20:43:32.401Z,94792.13
2023-08-11T20:45:58.969Z,94776.91
2023-08-11T20:48:25.583Z,94776.75
2023-08-11T20:50:58.170Z,94776.19
2023-08-11T20:53:24.732Z,94773.53
2023-08-11T20:55:51.398Z,94777.50
2023-08-11T20:58:17.990Z,94781.69
2023-08-11T21:00:46.200Z,94784.03
2023-08-11T21:03:12.849Z,94783.25
2023-08-11T21:05:42.166Z,94787.25
2023-08-11T21:08:12.345Z,94778.66
2023-08-11T21:10:46.276Z,94780.78
2023-08-11T21:13:15.217Z,94783.09
2023-08-11T21:15:42.377Z,94786.63
2023-08-11T21:18:10.283Z,94785.72
2023-08-11T21:20:37.400Z,94785.38
2023-08-11T21:23:04.994Z,94791.81
2023-08-11T21:25:32.902Z,94792.22
2023-08-11T21:27:59.685Z,94791.91
2023-08-11T21:30:26.612Z,94800.22
2023-08-11T21:32:53.338Z,94795.97
2023-08-11T21:35:22.896Z,94789.81
2023-08-11T21:37:49.798Z,94798.59
2023-08-11T21:40:16.608Z,94792.38
2023-08-11T21:42:43.837Z,94796.50
2023-08-11T21:45:11.071Z,94798.06
2023-08-11T21:47:38.337Z,94796.44
2023-08-11T21:50:05.534Z,94800.03
2023-08-11T21:52:32.114Z,94798.75
2023-08-11T21:54:58.721Z,94795.66
2023-08-11T21:57:25.343Z,94795.81
2023-08-11T21:59:52.118Z,94797.38
2023-08-11T22:02:18.772Z,94795.66
2023-08-11T22:04:48.417Z,94791.50
2023-08-11T22:07:15.754Z,94797.13
2023-08-11T22:09:42.917Z,94791.91
2023-08-11T22:12:11.962Z,94799.47
2023-08-11T22:14:39.226Z,94792.88
2023-08-11T22:17:06.170Z,94789.41
2023-08-11T22:19:36.094Z,94788.28
2023-08-11T22:22:04.116Z,94791.13
2023-08-11T22:24:39.908Z,94784.66
2023-08-11T22:27:09.485Z,94786.97
2023-08-11T22:29:36.489Z,94785.34
2023-08-11T22:32:04.257Z,94785.34
2023-08-11T22:34:31.229Z,94783.28
2023-08-11T22:36:57.921Z,94779.38
2023-08-11T22:39:24.521Z,94779.63
2023-08-11T22:41:51.173Z,94779.88
2023-08-11T22:44:17.721Z,94776.69
2023-08-11T22:46:44.420Z,94775.03
2023-08-11T22:49:10.976Z,94776.31
2023-08-11T22:51:37.542Z,94783.44
2023-08-11T22:54:04.182Z,94782.91
2023-08-11T22:56:30.735Z,94784.91
2023-08-11T22:58:57.322Z,94780.56
2023-08-11T23:01:23.885Z,94777.09
2023-08-11T23:03:50.529Z,94773.91
2023-08-11T23:06:17.148Z,94775.56
2023-08-11T23:08:43.758Z,94772.78
2023-08-11T23:11:10.404Z,94764.56
2023-08-11T23:13:37.022Z,94760.66
2023-08-11T23:16:04.114Z,94758.84
2023-08-11T23:18:30.761Z,94760.50
2023-08-11T23:20:57.297Z,94761.34
2023-08-11T23:23:23.900Z,94759.09
2023-08-11T23:25:51.191Z,94761.41
2023-08-11T23:28:20.120Z,94750.72
2023-08-11T23:30:46.686Z,94756.59
2023-08-11T23:33:14.009Z,94759.28
2023-08-11T23:35:40.636Z,94749.91
2023-08-11T23:38:07.436Z,94755.88
2023-08-11T23:40:33.986Z,94747.72
2023-08-11T23:43:00.587Z,94750.19
2023-08-11T23:45:27.176Z,94747.44
2023-08-11T23:47:53.938Z,94753.31
2023-08-11T23:50:20.557Z,94747.78
2023-08-11T23:52:47.300Z,94752.88
2023-08-11T23:55:14.755Z,94745.09
2023-08-11T23:57:41.910Z,94751.41
